sensor_id;sensor_type;location;lat;lon;timestamp;temperature;humidity
15617;DHT22;7908;51.688;7.130;2023-03-04T00:00:44;5.00;99.90
15617;DHT22;7908;51.688;7.130;2023-03-04T00:03:14;5.00;99.90
15617;DHT22;7908;51.688;7.130;2023-03-04T00:05:42;5.00;99.90
15617;DHT22;7908;51.688;7.130;2023-03-04T00:08:13;5.00;99.90
15617;DHT22;7908;51.688;7.130;2023-03-04T00:10:42;5.00;99.90
15617;DHT22;7908;51.688;7.130;2023-03-04T00:13:11;5.00;99.90
15617;DHT22;7908;51.688;7.130;2023-03-04T00:15:39;5.00;99.90
15617;DHT22;7908;51.688;7.130;2023-03-04T00:18:08;5.00;99.90
15617;DHT22;7908;51.688;7.130;2023-03-04T00:20:36;5.00;99.90
15617;DHT22;7908;51.688;7.130;2023-03-04T00:23:05;5.00;99.90
15617;DHT22;7908;51.688;7.130;2023-03-04T00:25:35;5.00;99.90
15617;DHT22;7908;51.688;7.130;2023-03-04T00:28:04;5.00;99.90
15617;DHT22;7908;51.688;7.130;2023-03-04T00:30:33;5.00;99.90
15617;DHT22;7908;51.688;7.130;2023-03-04T00:33:01;4.90;99.90
15617;DHT22;7908;51.688;7.130;2023-03-04T00:35:30;4.90;99.90
15617;DHT22;7908;51.688;7.130;2023-03-04T00:37:58;4.90;99.90
15617;DHT22;7908;51.688;7.130;2023-03-04T00:40:27;5.00;99.90
15617;DHT22;7908;51.688;7.130;2023-03-04T00:42:57;5.00;99.90
15617;DHT22;7908;51.688;7.130;2023-03-04T00:45:27;5.00;99.90
15617;DHT22;7908;51.688;7.130;2023-03-04T00:47:55;5.00;99.90
15617;DHT22;7908;51.688;7.130;2023-03-04T00:50:24;5.00;99.90
15617;DHT22;7908;51.688;7.130;2023-03-04T00:52:52;5.00;99.90
15617;DHT22;7908;51.688;7.130;2023-03-04T00:55:21;5.00;99.90
15617;DHT22;7908;51.688;7.130;2023-03-04T00:57:49;5.00;99.90
15617;DHT22;7908;51.688;7.130;2023-03-04T01:00:20;5.00;99.90
15617;DHT22;7908;51.688;7.130;2023-03-04T01:02:49;5.00;99.90
15617;DHT22;7908;51.688;7.130;2023-03-04T01:05:18;4.90;99.90
15617;DHT22;7908;51.688;7.130;2023-03-04T01:07:47;4.90;99.90
15617;DHT22;7908;51.688;7.130;2023-03-04T01:10:17;4.90;99.90
15617;DHT22;7908;51.688;7.130;2023-03-04T01:12:46;4.90;99.90
15617;DHT22;7908;51.688;7.130;2023-03-04T01:15:14;4.90;99.90
15617;DHT22;7908;51.688;7.130;2023-03-04T01:17:45;4.90;99.90
15617;DHT22;7908;51.688;7.130;2023-03-04T01:20:14;4.90;99.90
15617;DHT22;7908;51.688;7.130;2023-03-04T01:22:43;4.90;99.90
15617;DHT22;7908;51.688;7.130;2023-03-04T01:25:14;4.90;99.90
15617;DHT22;7908;51.688;7.130;2023-03-04T01:27:43;4.90;99.90
15617;DHT22;7908;51.688;7.130;2023-03-04T01:30:12;4.90;99.90
15617;DHT22;7908;51.688;7.130;2023-03-04T01:32:41;4.90;99.90
15617;DHT22;7908;51.688;7.130;2023-03-04T01:35:11;4.90;99.90
15617;DHT22;7908;51.688;7.130;2023-03-04T01:37:39;4.90;99.90
15617;DHT22;7908;51.688;7.130;2023-03-04T01:40:09;4.90;99.90
15617;DHT22;7908;51.688;7.130;2023-03-04T01:42:39;4.90;99.90
15617;DHT22;7908;51.688;7.130;2023-03-04T01:45:11;4.90;99.90
15617;DHT22;7908;51.688;7.130;2023-03-04T01:47:43;4.90;99.90
15617;DHT22;7908;51.688;7.130;2023-03-04T01:50:20;4.90;99.90
15617;DHT22;7908;51.688;7.130;2023-03-04T01:52:49;4.90;99.90
15617;DHT22;7908;51.688;7.130;2023-03-04T01:55:19;4.90;99.90
15617;DHT22;7908;51.688;7.130;2023-03-04T01:57:49;4.90;99.90
15617;DHT22;7908;51.688;7.130;2023-03-04T02:00:22;5.00;99.90
15617;DHT22;7908;51.688;7.130;2023-03-04T02:02:54;5.00;99.90
15617;DHT22;7908;51.688;7.130;2023-03-04T02:05:27;5.00;99.90
15617;DHT22;7908;51.688;7.130;2023-03-04T02:07:57;5.00;99.90
15617;DHT22;7908;51.688;7.130;2023-03-04T02:10:27;5.00;99.90
15617;DHT22;7908;51.688;7.130;2023-03-04T02:12:56;5.00;99.90
15617;DHT22;7908;51.688;7.130;2023-03-04T02:15:27;5.00;99.90
15617;DHT22;7908;51.688;7.130;2023-03-04T02:17:56;5.00;99.90
15617;DHT22;7908;51.688;7.130;2023-03-04T02:20:34;5.00;99.90
15617;DHT22;7908;51.688;7.130;2023-03-04T02:23:10;5.00;99.90
15617;DHT22;7908;51.688;7.130;2023-03-04T02:25:44;5.00;99.90
15617;DHT22;7908;51.688;7.130;2023-03-04T02:28:14;5.10;99.90
15617;DHT22;7908;51.688;7.130;2023-03-04T02:30:43;5.10;99.90
15617;DHT22;7908;51.688;7.130;2023-03-04T02:33:16;5.00;99.90
15617;DHT22;7908;51.688;7.130;2023-03-04T02:35:46;5.00;99.90
15617;DHT22;7908;51.688;7.130;2023-03-04T02:38:15;5.00;99.90
15617;DHT22;7908;51.688;7.130;2023-03-04T02:40:47;5.00;99.90
15617;DHT22;7908;51.688;7.130;2023-03-04T02:43:18;5.00;99.90
15617;DHT22;7908;51.688;7.130;2023-03-04T02:45:48;5.00;99.90
15617;DHT22;7908;51.688;7.130;2023-03-04T02:48:20;5.10;99.90
15617;DHT22;7908;51.688;7.130;2023-03-04T02:50:51;5.10;99.90
15617;DHT22;7908;51.688;7.130;2023-03-04T02:53:21;5.00;99.90
15617;DHT22;7908;51.688;7.130;2023-03-04T02:55:51;5.00;99.90
15617;DHT22;7908;51.688;7.130;2023-03-04T02:58:21;5.00;99.90
15617;DHT22;7908;51.688;7.130;2023-03-04T03:00:50;5.00;99.90
15617;DHT22;7908;51.688;7.130;2023-03-04T03:03:22;5.00;99.90
15617;DHT22;7908;51.688;7.130;2023-03-04T03:05:51;5.00;99.90
15617;DHT22;7908;51.688;7.130;2023-03-04T03:08:20;5.00;99.90
15617;DHT22;7908;51.688;7.130;2023-03-04T03:10:50;5.00;99.90
15617;DHT22;7908;51.688;7.130;2023-03-04T03:13:20;5.00;99.90
15617;DHT22;7908;51.688;7.130;2023-03-04T03:15:49;5.00;99.90
15617;DHT22;7908;51.688;7.130;2023-03-04T03:18:18;5.00;99.90
15617;DHT22;7908;51.688;7.130;2023-03-04T03:20:46;5.00;99.90
15617;DHT22;7908;51.688;7.130;2023-03-04T03:23:15;5.00;99.90
15617;DHT22;7908;51.688;7.130;2023-03-04T03:25:44;5.00;99.90
15617;DHT22;7908;51.688;7.130;2023-03-04T03:28:13;5.00;99.90
15617;DHT22;7908;51.688;7.130;2023-03-04T03:30:43;5.00;99.90
15617;DHT22;7908;51.688;7.130;2023-03-04T03:33:12;5.00;99.90
15617;DHT22;7908;51.688;7.130;2023-03-04T03:35:40;5.10;99.90
15617;DHT22;7908;51.688;7.130;2023-03-04T03:38:09;5.00;99.90
15617;DHT22;7908;51.688;7.130;2023-03-04T03:40:38;5.00;99.90
15617;DHT22;7908;51.688;7.130;2023-03-04T03:43:07;5.10;99.90
15617;DHT22;7908;51.688;7.130;2023-03-04T03:45:35;5.00;99.90
15617;DHT22;7908;51.688;7.130;2023-03-04T03:48:05;5.00;99.90
15617;DHT22;7908;51.688;7.130;2023-03-04T03:50:34;5.00;99.90
15617;DHT22;7908;51.688;7.130;2023-03-04T03:53:03;5.00;99.90
15617;DHT22;7908;51.688;7.130;2023-03-04T03:55:32;5.00;99.90
15617;DHT22;7908;51.688;7.130;2023-03-04T03:58:01;5.00;99.90
15617;DHT22;7908;51.688;7.130;2023-03-04T04:00:29;5.00;99.90
15617;DHT22;7908;51.688;7.130;2023-03-04T04:02:59;5.00;99.90
15617;DHT22;7908;51.688;7.130;2023-03-04T04:05:29;5.00;99.90
15617;DHT22;7908;51.688;7.130;2023-03-04T04:07:58;5.00;99.90
15617;DHT22;7908;51.688;7.130;2023-03-04T04:10:26;5.00;99.90
15617;DHT22;7908;51.688;7.130;2023-03-04T04:12:55;5.00;99.90
15617;DHT22;7908;51.688;7.130;2023-03-04T04:15:24;5.00;99.90
15617;DHT22;7908;51.688;7.130;2023-03-04T04:17:52;5.00;99.90
15617;DHT22;7908;51.688;7.130;2023-03-04T04:20:21;5.00;99.90
15617;DHT22;7908;51.688;7.130;2023-03-04T04:22:53;5.00;99.90
15617;DHT22;7908;51.688;7.130;2023-03-04T04:25:22;5.00;99.90
15617;DHT22;7908;51.688;7.130;2023-03-04T04:27:51;5.00;99.90
15617;DHT22;7908;51.688;7.130;2023-03-04T04:30:20;5.10;99.90
15617;DHT22;7908;51.688;7.130;2023-03-04T04:32:48;5.00;99.90
15617;DHT22;7908;51.688;7.130;2023-03-04T04:35:17;5.00;99.90
15617;DHT22;7908;51.688;7.130;2023-03-04T04:37:46;5.00;99.90
15617;DHT22;7908;51.688;7.130;2023-03-04T04:40:16;5.00;99.90
15617;DHT22;7908;51.688;7.130;2023-03-04T04:42:44;5.00;99.90
15617;DHT22;7908;51.688;7.130;2023-03-04T04:45:13;5.00;99.90
15617;DHT22;7908;51.688;7.130;2023-03-04T04:47:42;5.00;99.90
15617;DHT22;7908;51.688;7.130;2023-03-04T04:50:10;5.00;99.90
15617;DHT22;7908;51.688;7.130;2023-03-04T04:52:39;4.90;99.90
15617;DHT22;7908;51.688;7.130;2023-03-04T04:55:09;4.90;99.90
15617;DHT22;7908;51.688;7.130;2023-03-04T04:57:39;4.90;99.90
15617;DHT22;7908;51.688;7.130;2023-03-04T05:00:09;4.90;99.90
15617;DHT22;7908;51.688;7.130;2023-03-04T05:02:38;4.90;99.90
15617;DHT22;7908;51.688;7.130;2023-03-04T05:05:07;4.90;99.90
15617;DHT22;7908;51.688;7.130;2023-03-04T05:07:36;4.90;99.90
15617;DHT22;7908;51.688;7.130;2023-03-04T05:10:05;4.90;99.90
15617;DHT22;7908;51.688;7.130;2023-03-04T05:12:33;4.90;99.90
15617;DHT22;7908;51.688;7.130;2023-03-04T05:15:04;4.90;99.90
15617;DHT22;7908;51.688;7.130;2023-03-04T05:17:33;5.00;99.90
15617;DHT22;7908;51.688;7.130;2023-03-04T05:20:02;5.00;99.90
15617;DHT22;7908;51.688;7.130;2023-03-04T05:22:33;5.00;99.90
15617;DHT22;7908;51.688;7.130;2023-03-04T05:25:01;5.00;99.90
15617;DHT22;7908;51.688;7.130;2023-03-04T05:27:30;5.00;99.90
15617;DHT22;7908;51.688;7.130;2023-03-04T05:29:59;5.00;99.90
15617;DHT22;7908;51.688;7.130;2023-03-04T05:32:29;5.00;99.90
15617;DHT22;7908;51.688;7.130;2023-03-04T05:34:57;5.00;99.90
15617;DHT22;7908;51.688;7.130;2023-03-04T05:37:26;5.00;99.90
15617;DHT22;7908;51.688;7.130;2023-03-04T05:39:54;5.00;99.90
15617;DHT22;7908;51.688;7.130;2023-03-04T05:42:23;5.00;99.90
15617;DHT22;7908;51.688;7.130;2023-03-04T05:44:52;5.00;99.90
15617;DHT22;7908;51.688;7.130;2023-03-04T05:47:20;5.00;99.90
15617;DHT22;7908;51.688;7.130;2023-03-04T05:49:50;5.00;99.90
15617;DHT22;7908;51.688;7.130;2023-03-04T05:52:20;5.10;99.90
15617;DHT22;7908;51.688;7.130;2023-03-04T05:54:49;5.10;99.90
15617;DHT22;7908;51.688;7.130;2023-03-04T05:57:17;5.00;99.90
15617;DHT22;7908;51.688;7.130;2023-03-04T05:59:46;5.10;99.90
15617;DHT22;7908;51.688;7.130;2023-03-04T06:02:14;5.00;99.90
15617;DHT22;7908;51.688;7.130;2023-03-04T06:04:44;5.10;99.90
15617;DHT22;7908;51.688;7.130;2023-03-04T06:07:14;5.00;99.90
15617;DHT22;7908;51.688;7.130;2023-03-04T06:09:42;5.10;99.90
15617;DHT22;7908;51.688;7.130;2023-03-04T06:12:12;5.00;99.90
15617;DHT22;7908;51.688;7.130;2023-03-04T06:14:41;5.00;99.90
15617;DHT22;7908;51.688;7.130;2023-03-04T06:17:10;5.00;99.90
15617;DHT22;7908;51.688;7.130;2023-03-04T06:19:38;5.00;99.90
15617;DHT22;7908;51.688;7.130;2023-03-04T06:22:08;5.00;99.90
15617;DHT22;7908;51.688;7.130;2023-03-04T06:24:38;5.10;99.90
15617;DHT22;7908;51.688;7.130;2023-03-04T06:27:06;5.00;99.90
15617;DHT22;7908;51.688;7.130;2023-03-04T06:29:35;5.00;99.90
15617;DHT22;7908;51.688;7.130;2023-03-04T06:32:04;5.00;99.90
15617;DHT22;7908;51.688;7.130;2023-03-04T06:34:33;5.00;99.90
15617;DHT22;7908;51.688;7.130;2023-03-04T06:37:02;5.00;99.90
15617;DHT22;7908;51.688;7.130;2023-03-04T06:39:31;5.00;99.90
15617;DHT22;7908;51.688;7.130;2023-03-04T06:42:01;5.10;99.90
15617;DHT22;7908;51.688;7.130;2023-03-04T06:44:30;5.00;99.90
15617;DHT22;7908;51.688;7.130;2023-03-04T06:46:58;5.10;99.90
15617;DHT22;7908;51.688;7.130;2023-03-04T06:49:27;5.10;99.90
15617;DHT22;7908;51.688;7.130;2023-03-04T06:51:56;5.10;99.90
15617;DHT22;7908;51.688;7.130;2023-03-04T06:54:25;5.10;99.90
15617;DHT22;7908;51.688;7.130;2023-03-04T06:56:53;5.10;99.90
15617;DHT22;7908;51.688;7.130;2023-03-04T06:59:23;5.10;99.90
15617;DHT22;7908;51.688;7.130;2023-03-04T07:01:53;5.10;99.90
15617;DHT22;7908;51.688;7.130;2023-03-04T07:04:21;5.10;99.90
15617;DHT22;7908;51.688;7.130;2023-03-04T07:06:51;5.10;99.90
15617;DHT22;7908;51.688;7.130;2023-03-04T07:09:19;5.10;99.90
15617;DHT22;7908;51.688;7.130;2023-03-04T07:11:48;5.10;99.90
15617;DHT22;7908;51.688;7.130;2023-03-04T07:14:17;5.20;99.90
15617;DHT22;7908;51.688;7.130;2023-03-04T07:16:49;5.10;99.90
15617;DHT22;7908;51.688;7.130;2023-03-04T07:19:18;5.10;99.90
15617;DHT22;7908;51.688;7.130;2023-03-04T07:21:47;5.10;99.90
15617;DHT22;7908;51.688;7.130;2023-03-04T07:24:16;5.10;99.90
15617;DHT22;7908;51.688;7.130;2023-03-04T07:26:45;5.10;99.90
15617;DHT22;7908;51.688;7.130;2023-03-04T07:29:13;5.20;99.90
15617;DHT22;7908;51.688;7.130;2023-03-04T07:31:42;5.20;99.90
15617;DHT22;7908;51.688;7.130;2023-03-04T07:34:13;5.30;99.90
15617;DHT22;7908;51.688;7.130;2023-03-04T07:36:42;5.40;99.90
15617;DHT22;7908;51.688;7.130;2023-03-04T07:39:12;5.40;99.90
15617;DHT22;7908;51.688;7.130;2023-03-04T07:41:41;5.50;99.90
15617;DHT22;7908;51.688;7.130;2023-03-04T07:44:11;5.50;99.90
15617;DHT22;7908;51.688;7.130;2023-03-04T07:46:41;5.50;99.90
15617;DHT22;7908;51.688;7.130;2023-03-04T07:49:12;5.50;99.90
15617;DHT22;7908;51.688;7.130;2023-03-04T07:51:41;5.60;99.90
15617;DHT22;7908;51.688;7.130;2023-03-04T07:54:10;5.60;99.90
15617;DHT22;7908;51.688;7.130;2023-03-04T07:56:39;5.70;99.90
15617;DHT22;7908;51.688;7.130;2023-03-04T07:59:07;5.80;99.90
15617;DHT22;7908;51.688;7.130;2023-03-04T08:01:37;5.80;99.90
15617;DHT22;7908;51.688;7.130;2023-03-04T08:04:06;5.80;99.90
15617;DHT22;7908;51.688;7.130;2023-03-04T08:06:38;5.90;99.90
15617;DHT22;7908;51.688;7.130;2023-03-04T08:09:09;5.90;99.90
15617;DHT22;7908;51.688;7.130;2023-03-04T08:11:40;6.00;99.90
15617;DHT22;7908;51.688;7.130;2023-03-04T08:14:10;6.00;99.90
15617;DHT22;7908;51.688;7.130;2023-03-04T08:16:40;6.00;99.90
15617;DHT22;7908;51.688;7.130;2023-03-04T08:19:10;6.00;99.90
15617;DHT22;7908;51.688;7.130;2023-03-04T08:21:40;6.00;99.90
15617;DHT22;7908;51.688;7.130;2023-03-04T08:24:11;6.00;99.90
15617;DHT22;7908;51.688;7.130;2023-03-04T08:26:41;6.10;99.90
15617;DHT22;7908;51.688;7.130;2023-03-04T08:29:13;6.10;99.90
15617;DHT22;7908;51.688;7.130;2023-03-04T08:31:45;6.10;99.90
15617;DHT22;7908;51.688;7.130;2023-03-04T08:34:15;6.10;99.90
15617;DHT22;7908;51.688;7.130;2023-03-04T08:36:46;6.20;99.90
15617;DHT22;7908;51.688;7.130;2023-03-04T08:39:16;6.10;99.90
15617;DHT22;7908;51.688;7.130;2023-03-04T08:41:46;6.00;99.90
15617;DHT22;7908;51.688;7.130;2023-03-04T08:44:15;5.90;99.90
15617;DHT22;7908;51.688;7.130;2023-03-04T08:46:43;6.00;99.90
15617;DHT22;7908;51.688;7.130;2023-03-04T08:49:12;6.00;99.90
15617;DHT22;7908;51.688;7.130;2023-03-04T08:51:41;6.00;99.90
15617;DHT22;7908;51.688;7.130;2023-03-04T08:54:13;6.10;99.90
15617;DHT22;7908;51.688;7.130;2023-03-04T08:56:41;6.10;99.90
15617;DHT22;7908;51.688;7.130;2023-03-04T08:59:10;6.20;99.90
15617;DHT22;7908;51.688;7.130;2023-03-04T09:01:40;6.30;99.90
15617;DHT22;7908;51.688;7.130;2023-03-04T09:04:10;6.40;99.90
15617;DHT22;7908;51.688;7.130;2023-03-04T09:06:38;6.50;99.90
15617;DHT22;7908;51.688;7.130;2023-03-04T09:09:07;6.50;99.90
15617;DHT22;7908;51.688;7.130;2023-03-04T09:11:37;6.60;99.90
15617;DHT22;7908;51.688;7.130;2023-03-04T09:14:06;6.60;99.90
15617;DHT22;7908;51.688;7.130;2023-03-04T09:16:36;6.60;99.90
15617;DHT22;7908;51.688;7.130;2023-03-04T09:19:05;6.60;99.90
15617;DHT22;7908;51.688;7.130;2023-03-04T09:21:34;6.50;99.90
15617;DHT22;7908;51.688;7.130;2023-03-04T09:24:03;6.50;99.90
15617;DHT22;7908;51.688;7.130;2023-03-04T09:26:32;6.60;99.90
15617;DHT22;7908;51.688;7.130;2023-03-04T09:29:05;6.50;99.90
15617;DHT22;7908;51.688;7.130;2023-03-04T09:31:34;6.50;99.90
15617;DHT22;7908;51.688;7.130;2023-03-04T09:34:03;6.50;99.90
15617;DHT22;7908;51.688;7.130;2023-03-04T09:36:32;6.50;99.90
15617;DHT22;7908;51.688;7.130;2023-03-04T09:39:02;6.60;99.90
15617;DHT22;7908;51.688;7.130;2023-03-04T09:41:35;6.70;99.90
15617;DHT22;7908;51.688;7.130;2023-03-04T09:44:17;6.70;99.90
15617;DHT22;7908;51.688;7.130;2023-03-04T09:46:49;6.70;99.90
15617;DHT22;7908;51.688;7.130;2023-03-04T09:49:20;6.70;99.90
15617;DHT22;7908;51.688;7.130;2023-03-04T09:51:54;6.70;99.90
15617;DHT22;7908;51.688;7.130;2023-03-04T09:54:42;6.70;99.90
15617;DHT22;7908;51.688;7.130;2023-03-04T09:57:25;6.80;99.90
15617;DHT22;7908;51.688;7.130;2023-03-04T10:00:04;6.80;99.90
15617;DHT22;7908;51.688;7.130;2023-03-04T10:02:44;6.90;99.90
15617;DHT22;7908;51.688;7.130;2023-03-04T10:05:17;6.90;99.90
15617;DHT22;7908;51.688;7.130;2023-03-04T10:07:51;7.00;99.90
15617;DHT22;7908;51.688;7.130;2023-03-04T10:10:26;7.00;99.90
15617;DHT22;7908;51.688;7.130;2023-03-04T10:13:00;7.00;99.90
15617;DHT22;7908;51.688;7.130;2023-03-04T10:15:35;7.00;99.90
15617;DHT22;7908;51.688;7.130;2023-03-04T10:18:12;7.00;99.90
15617;DHT22;7908;51.688;7.130;2023-03-04T10:20:51;6.90;99.90
15617;DHT22;7908;51.688;7.130;2023-03-04T10:23:23;6.90;99.90
15617;DHT22;7908;51.688;7.130;2023-03-04T10:25:53;6.80;99.90
15617;DHT22;7908;51.688;7.130;2023-03-04T10:28:26;6.80;99.90
15617;DHT22;7908;51.688;7.130;2023-03-04T10:31:02;6.80;99.90
15617;DHT22;7908;51.688;7.130;2023-03-04T10:33:33;6.80;99.90
15617;DHT22;7908;51.688;7.130;2023-03-04T10:36:05;6.80;99.90
15617;DHT22;7908;51.688;7.130;2023-03-04T10:38:35;6.80;99.90
15617;DHT22;7908;51.688;7.130;2023-03-04T10:41:12;6.80;99.90
15617;DHT22;7908;51.688;7.130;2023-03-04T10:43:41;6.90;99.90
15617;DHT22;7908;51.688;7.130;2023-03-04T10:46:15;6.80;99.90
15617;DHT22;7908;51.688;7.130;2023-03-04T10:48:44;6.90;99.90
15617;DHT22;7908;51.688;7.130;2023-03-04T10:51:18;6.90;99.90
15617;DHT22;7908;51.688;7.130;2023-03-04T10:53:50;6.90;99.90
15617;DHT22;7908;51.688;7.130;2023-03-04T10:56:35;7.00;99.90
15617;DHT22;7908;51.688;7.130;2023-03-04T11:02:20;7.00;99.90
15617;DHT22;7908;51.688;7.130;2023-03-04T11:04:53;7.10;99.90
15617;DHT22;7908;51.688;7.130;2023-03-04T11:07:24;7.10;99.90
15617;DHT22;7908;51.688;7.130;2023-03-04T11:09:53;7.10;99.90
15617;DHT22;7908;51.688;7.130;2023-03-04T11:12:33;7.10;99.90
15617;DHT22;7908;51.688;7.130;2023-03-04T11:15:14;7.00;99.90
15617;DHT22;7908;51.688;7.130;2023-03-04T11:17:48;7.00;99.90
15617;DHT22;7908;51.688;7.130;2023-03-04T11:20:30;7.10;99.90
15617;DHT22;7908;51.688;7.130;2023-03-04T11:23:04;7.10;99.90
15617;DHT22;7908;51.688;7.130;2023-03-04T11:25:35;7.10;99.90
15617;DHT22;7908;51.688;7.130;2023-03-04T11:28:12;7.10;99.90
15617;DHT22;7908;51.688;7.130;2023-03-04T11:30:47;7.20;99.90
15617;DHT22;7908;51.688;7.130;2023-03-04T11:33:24;7.30;99.90
15617;DHT22;7908;51.688;7.130;2023-03-04T11:36:03;7.40;99.90
15617;DHT22;7908;51.688;7.130;2023-03-04T11:38:38;7.40;99.90
15617;DHT22;7908;51.688;7.130;2023-03-04T11:41:12;7.40;99.90
15617;DHT22;7908;51.688;7.130;2023-03-04T11:43:44;7.40;99.90
15617;DHT22;7908;51.688;7.130;2023-03-04T11:46:33;7.40;99.90
15617;DHT22;7908;51.688;7.130;2023-03-04T11:49:31;7.50;99.90
15617;DHT22;7908;51.688;7.130;2023-03-04T11:52:06;7.50;99.90
15617;DHT22;7908;51.688;7.130;2023-03-04T11:54:45;7.60;99.90
15617;DHT22;7908;51.688;7.130;2023-03-04T11:57:28;7.60;99.90
15617;DHT22;7908;51.688;7.130;2023-03-04T12:00:15;7.70;99.90
15617;DHT22;7908;51.688;7.130;2023-03-04T12:03:00;7.70;99.90
15617;DHT22;7908;51.688;7.130;2023-03-04T12:05:42;7.70;99.90
15617;DHT22;7908;51.688;7.130;2023-03-04T12:08:21;7.60;99.90
15617;DHT22;7908;51.688;7.130;2023-03-04T12:11:01;7.50;99.90
15617;DHT22;7908;51.688;7.130;2023-03-04T12:13:50;7.40;99.90
15617;DHT22;7908;51.688;7.130;2023-03-04T12:16:38;7.30;99.90
15617;DHT22;7908;51.688;7.130;2023-03-04T12:19:22;7.20;99.90
15617;DHT22;7908;51.688;7.130;2023-03-04T12:22:08;7.20;99.90
15617;DHT22;7908;51.688;7.130;2023-03-04T12:25:00;7.10;99.90
15617;DHT22;7908;51.688;7.130;2023-03-04T12:27:37;7.00;99.90
15617;DHT22;7908;51.688;7.130;2023-03-04T12:30:20;7.00;99.90
15617;DHT22;7908;51.688;7.130;2023-03-04T12:33:00;7.00;99.90
15617;DHT22;7908;51.688;7.130;2023-03-04T12:35:41;7.10;99.90
15617;DHT22;7908;51.688;7.130;2023-03-04T12:38:41;7.30;99.90
15617;DHT22;7908;51.688;7.130;2023-03-04T12:41:33;7.40;99.90
15617;DHT22;7908;51.688;7.130;2023-03-04T12:44:12;7.50;99.90
15617;DHT22;7908;51.688;7.130;2023-03-04T12:49:50;7.60;99.90
15617;DHT22;7908;51.688;7.130;2023-03-04T12:52:32;7.50;99.90
15617;DHT22;7908;51.688;7.130;2023-03-04T12:55:08;7.50;99.90
15617;DHT22;7908;51.688;7.130;2023-03-04T12:57:37;7.40;99.90
15617;DHT22;7908;51.688;7.130;2023-03-04T13:00:17;7.30;99.90
15617;DHT22;7908;51.688;7.130;2023-03-04T13:02:57;7.30;99.90
15617;DHT22;7908;51.688;7.130;2023-03-04T13:05:50;7.20;99.90
15617;DHT22;7908;51.688;7.130;2023-03-04T13:08:28;7.30;99.90
15617;DHT22;7908;51.688;7.130;2023-03-04T13:11:02;7.20;99.90
15617;DHT22;7908;51.688;7.130;2023-03-04T13:13:37;7.30;99.90
15617;DHT22;7908;51.688;7.130;2023-03-04T13:16:27;7.40;99.90
15617;DHT22;7908;51.688;7.130;2023-03-04T13:18:59;7.50;99.90
15617;DHT22;7908;51.688;7.130;2023-03-04T13:21:28;7.60;99.90
15617;DHT22;7908;51.688;7.130;2023-03-04T13:31:03;7.90;99.90
15617;DHT22;7908;51.688;7.130;2023-03-04T13:33:55;7.90;99.90
15617;DHT22;7908;51.688;7.130;2023-03-04T13:36:30;8.00;99.90
15617;DHT22;7908;51.688;7.130;2023-03-04T13:39:01;7.90;99.90
15617;DHT22;7908;51.688;7.130;2023-03-04T13:41:45;7.80;99.90
15617;DHT22;7908;51.688;7.130;2023-03-04T13:47:28;7.70;99.90
15617;DHT22;7908;51.688;7.130;2023-03-04T13:53:40;7.80;99.90
15617;DHT22;7908;51.688;7.130;2023-03-04T14:02:01;8.00;99.90
15617;DHT22;7908;51.688;7.130;2023-03-04T14:04:33;8.00;99.90
15617;DHT22;7908;51.688;7.130;2023-03-04T14:07:15;8.00;99.90
15617;DHT22;7908;51.688;7.130;2023-03-04T14:10:00;8.10;99.90
15617;DHT22;7908;51.688;7.130;2023-03-04T14:12:32;8.10;99.90
15617;DHT22;7908;51.688;7.130;2023-03-04T14:15:04;8.10;99.90
15617;DHT22;7908;51.688;7.130;2023-03-04T14:17:35;8.10;99.90
15617;DHT22;7908;51.688;7.130;2023-03-04T14:20:22;8.10;99.90
15617;DHT22;7908;51.688;7.130;2023-03-04T14:22:52;8.00;99.90
15617;DHT22;7908;51.688;7.130;2023-03-04T14:25:23;7.90;99.90
15617;DHT22;7908;51.688;7.130;2023-03-04T14:28:02;7.80;99.90
15617;DHT22;7908;51.688;7.130;2023-03-04T14:30:32;7.80;99.90
15617;DHT22;7908;51.688;7.130;2023-03-04T14:33:15;7.70;99.90
15617;DHT22;7908;51.688;7.130;2023-03-04T14:35:48;7.70;99.90
15617;DHT22;7908;51.688;7.130;2023-03-04T14:38:23;7.60;99.90
15617;DHT22;7908;51.688;7.130;2023-03-04T14:40:57;7.60;99.90
15617;DHT22;7908;51.688;7.130;2023-03-04T14:43:28;7.60;99.90
15617;DHT22;7908;51.688;7.130;2023-03-04T14:46:00;7.60;99.90
15617;DHT22;7908;51.688;7.130;2023-03-04T14:48:31;7.50;99.90
15617;DHT22;7908;51.688;7.130;2023-03-04T14:51:03;7.50;99.90
15617;DHT22;7908;51.688;7.130;2023-03-04T14:53:32;7.60;99.90
15617;DHT22;7908;51.688;7.130;2023-03-04T14:56:04;7.60;99.90
15617;DHT22;7908;51.688;7.130;2023-03-04T14:58:34;7.70;99.90
15617;DHT22;7908;51.688;7.130;2023-03-04T15:01:13;7.70;99.90
15617;DHT22;7908;51.688;7.130;2023-03-04T15:03:49;7.80;99.90
15617;DHT22;7908;51.688;7.130;2023-03-04T15:06:23;7.80;99.90
15617;DHT22;7908;51.688;7.130;2023-03-04T15:08:57;7.80;99.90
15617;DHT22;7908;51.688;7.130;2023-03-04T15:11:29;7.80;99.90
15617;DHT22;7908;51.688;7.130;2023-03-04T15:14:00;7.80;99.90
15617;DHT22;7908;51.688;7.130;2023-03-04T15:16:52;7.80;99.90
15617;DHT22;7908;51.688;7.130;2023-03-04T15:19:24;7.80;99.90
15617;DHT22;7908;51.688;7.130;2023-03-04T15:22:04;7.80;99.90
15617;DHT22;7908;51.688;7.130;2023-03-04T15:24:34;7.90;99.90
15617;DHT22;7908;51.688;7.130;2023-03-04T15:27:03;7.90;99.90
15617;DHT22;7908;51.688;7.130;2023-03-04T15:29:34;7.90;99.90
15617;DHT22;7908;51.688;7.130;2023-03-04T15:32:03;7.90;99.90
15617;DHT22;7908;51.688;7.130;2023-03-04T15:34:32;7.90;99.90
15617;DHT22;7908;51.688;7.130;2023-03-04T15:37:03;7.80;99.90
15617;DHT22;7908;51.688;7.130;2023-03-04T15:39:32;7.80;99.90
15617;DHT22;7908;51.688;7.130;2023-03-04T15:42:01;7.80;99.90
15617;DHT22;7908;51.688;7.130;2023-03-04T15:44:31;7.80;99.90
15617;DHT22;7908;51.688;7.130;2023-03-04T15:47:00;7.80;99.90
15617;DHT22;7908;51.688;7.130;2023-03-04T15:49:31;7.70;99.90
15617;DHT22;7908;51.688;7.130;2023-03-04T15:52:04;7.70;99.90
15617;DHT22;7908;51.688;7.130;2023-03-04T15:54:33;7.70;99.90
15617;DHT22;7908;51.688;7.130;2023-03-04T15:57:05;7.60;99.90
15617;DHT22;7908;51.688;7.130;2023-03-04T15:59:36;7.60;99.90
15617;DHT22;7908;51.688;7.130;2023-03-04T16:02:10;7.60;99.90
15617;DHT22;7908;51.688;7.130;2023-03-04T16:04:42;7.50;99.90
15617;DHT22;7908;51.688;7.130;2023-03-04T16:07:15;7.50;99.90
15617;DHT22;7908;51.688;7.130;2023-03-04T16:09:52;7.60;99.90
15617;DHT22;7908;51.688;7.130;2023-03-04T16:12:24;7.50;99.90
15617;DHT22;7908;51.688;7.130;2023-03-04T16:14:54;7.60;99.90
15617;DHT22;7908;51.688;7.130;2023-03-04T16:17:23;7.60;99.90
15617;DHT22;7908;51.688;7.130;2023-03-04T16:19:52;7.50;99.90
15617;DHT22;7908;51.688;7.130;2023-03-04T16:22:25;7.50;99.90
15617;DHT22;7908;51.688;7.130;2023-03-04T16:24:56;7.50;99.90
15617;DHT22;7908;51.688;7.130;2023-03-04T16:27:25;7.50;99.90
15617;DHT22;7908;51.688;7.130;2023-03-04T16:29:54;7.40;99.90
15617;DHT22;7908;51.688;7.130;2023-03-04T16:32:23;7.40;99.90
15617;DHT22;7908;51.688;7.130;2023-03-04T16:34:53;7.30;99.90
15617;DHT22;7908;51.688;7.130;2023-03-04T16:37:23;7.30;99.90
15617;DHT22;7908;51.688;7.130;2023-03-04T16:39:53;7.40;99.90
15617;DHT22;7908;51.688;7.130;2023-03-04T16:42:22;7.30;99.90
15617;DHT22;7908;51.688;7.130;2023-03-04T16:44:53;7.30;99.90
15617;DHT22;7908;51.688;7.130;2023-03-04T16:47:22;7.30;99.90
15617;DHT22;7908;51.688;7.130;2023-03-04T16:49:51;7.30;99.90
15617;DHT22;7908;51.688;7.130;2023-03-04T16:52:26;7.30;99.90
15617;DHT22;7908;51.688;7.130;2023-03-04T16:54:57;7.30;99.90
15617;DHT22;7908;51.688;7.130;2023-03-04T16:57:27;7.20;99.90